ZGGG Airport Information

Runway Information
Runway 02R Length 12467 ft width 197 ft Elevation 45 ft Threshold N/A Heading 14
Runway 20L Length 12467 ft Width 197 ft Elevation 48 ft Threshold N/A Heading 194
Runway 01 Length 11811 ft width 148 ft Elevation 41 ft Threshold N/A Heading 14
Runway 19 Length 11811 ft Width 148 ft Elevation 43 ft Threshold N/A Heading 194
Runway 02L Length 12467 ft width 197 ft Elevation 45 ft Threshold N/A Heading 14
Runway 20R Length 12467 ft Width 197 ft Elevation 45 ft Threshold 700 ft Heading 194
Airport Frequencies
Type APP Name GUANGZHOU Frequency 120.4 MHZ
Type ATIS Name ATIS Frequency 128.6 MHZ
Type CLD Name CLD Frequency 121.95 MHZ
Type GND Name GND Frequency 121.75 MHZ
Type TWR Name TWR Frequency 118.1 MHZ
Airport Navaids
Type VOR-DME Name Cencun Frequency 114600 KHZ
Type VOR-DME Name Conghua Frequency 113000 KHZ
Type NDB Name Baiyun Frequency 411 KHZ
Type NDB Name Yanbu Frequency 423 KHZ
Type VOR-DME Name Yuantan Frequency 108600 KHZ
Airport Weather Information & NOTAM
ADDS - METARS form results

(0449 UTC 09 December 2022)
Data provider http://aviationweather.gov/metar/data/
 
METAR text: ZGGG 090430Z 35004MPS 310V040 CAVOK 20/12 Q1017 NOSIG
Conditions at: ZGGG (GUANGZHOU/BAIYUN, CN) observed 0430 UTC 09 December 2022
Temperature: 20.0°C (68°F)
Dewpoint: 12.0°C (54°F) [RH = 60%]
Pressure (altimeter): 30.03 inches Hg (1017.0 mb)
Winds: from the N (350 degrees) at 9 MPH (8 knots; 4.1 m/s)
Visibility: 6 or more miles (10+ km)
Ceiling: ceiling and visibility are OK
Clouds: unknown
Weather: no significant weather observed at this time

METAR text: ZGGG 090400Z 34006MPS CAVOK 19/11 Q1018 NOSIG
Conditions at: ZGGG (GUANGZHOU/BAIYUN, CN) observed 0400 UTC 09 December 2022
Temperature: 19.0°C (66°F)
Dewpoint: 11.0°C (52°F) [RH = 60%]
Pressure (altimeter): 30.06 inches Hg (1018.0 mb)
Winds: from the NNW (340 degrees) at 14 MPH (12 knots; 6.2 m/s)
Visibility: 6 or more miles (10+ km)
Ceiling: ceiling and visibility are OK
Clouds: unknown
Weather: no significant weather observed at this time

Forecast for: ZGGG (GUANGZHOU/BAIYUN, CN)
Text: TAF ZGGG 090305Z 0906/1006 01004MPS 8000 SCT040 TX23/0907Z TN13/0922Z
Forecast period: 0600 UTC 09 December 2022 to 0600 UTC 10 December 2022
Forecast type: FROM: standard forecast or significant change
Winds: from the N (10 degrees) at 9 MPH (8 knots; 4.1 m/s)
Visibility: 5 miles (8 km)
Ceiling: at least 12,000 feet AGL
Clouds: scattered clouds at 4000 feet AGL
Weather: no significant weather forecast for this period